Terminal Aerodrome Forecast
Issued by NWS

Home | Current Version | Previous Version | Text Only | Print | Product List | Glossary On
Versions: 1 2 3 4 5 6 7 8 9 10 11 12 13 14 15 16 17 18 19 20 21 22 23 24 25 26 27 28 29 30 31 32 33 34 35 36 37 38
000
FTUS45 KGJT 271728
TAFDRO
TAF
KDRO 271728Z 2718/2818 VRB04KT P6SM SCT120
     FM272200 20008KT P6SM VCSH SCT060 BKN110
     FM280100 21008KT P6SM -SHRA OVC060
     FM280600 19004KT P6SM -SHRA OVC045
     FM280900 00000KT P6SM -SHRASN OVC070
     FM281200 06004KT P6SM -SHSN BKN050
     FM281600 VRB03KT P6SM BKN035=

USA.gov is the U.S. government's official web portal to all federal, state and local government web resources and services.